createdAt,value
2019-04-05T00:00:06.868Z,96.11
2019-04-05T00:01:06.868Z,96.31
2019-04-05T00:02:06.845Z,96.36
2019-04-05T00:03:06.849Z,96.01
2019-04-05T00:04:06.825Z,96.36
2019-04-05T00:05:06.812Z,96.56
2019-04-05T00:06:06.801Z,96.15
2019-04-05T00:07:06.790Z,96.52
2019-04-05T00:08:06.781Z,95.95
2019-04-05T00:09:06.780Z,96.31
2019-04-05T00:10:06.757Z,96.36
2019-04-05T00:11:06.746Z,96.56
2019-04-05T00:12:06.735Z,96.56
2019-04-05T00:13:06.724Z,96.88
2019-04-05T00:14:06.712Z,96.73
2019-04-05T00:15:14.990Z,96.42
2019-04-05T00:16:07.691Z,96.52
2019-04-05T00:17:06.680Z,96.47
2019-04-05T00:18:06.670Z,96.36
2019-04-05T00:19:06.658Z,96.88
2019-04-05T00:20:06.648Z,96.73
2019-04-05T00:21:06.649Z,96.98
2019-04-05T00:22:06.626Z,96.83
2019-04-05T00:23:06.615Z,96.73
2019-04-05T00:24:06.606Z,96.77
2019-04-05T00:25:06.593Z,96.73
2019-04-05T00:26:06.582Z,96.77
2019-04-05T00:27:06.586Z,96.83
2019-04-05T00:28:06.560Z,96.88
2019-04-05T00:29:06.552Z,96.77
2019-04-05T00:30:06.538Z,96.88
2019-04-05T00:31:06.527Z,97.39
2019-04-05T00:32:06.515Z,97.39
2019-04-05T00:33:06.515Z,97.39
2019-04-05T00:34:06.494Z,97.08
2019-04-05T00:35:06.484Z,97.50
2019-04-05T00:36:06.474Z,97.19
2019-04-05T00:37:06.461Z,96.88
2019-04-05T00:38:06.449Z,96.56
2019-04-05T00:39:06.449Z,97.29
2019-04-05T00:40:06.429Z,97.39
2019-04-05T00:41:06.418Z,97.19
2019-04-05T00:42:06.407Z,96.67
2019-04-05T00:43:06.395Z,96.67
2019-04-05T00:44:06.384Z,97.08
2019-04-05T00:45:06.383Z,96.77
2019-04-05T00:46:06.367Z,97.29
2019-04-05T00:47:06.379Z,96.98
2019-04-05T00:48:06.341Z,97.29
2019-04-05T00:49:06.330Z,97.19
2019-04-05T00:50:06.318Z,97.39
2019-04-05T00:51:06.318Z,97.19
2019-04-05T00:52:06.298Z,97.29
2019-04-05T00:53:06.291Z,97.29
2019-04-05T00:54:06.275Z,97.29
2019-04-05T00:55:06.266Z,97.08
2019-04-05T00:56:06.253Z,97.19
2019-04-05T00:57:06.253Z,97.29
2019-04-05T00:58:06.231Z,96.98
2019-04-05T00:59:06.222Z,97.60
2019-04-05T01:00:06.209Z,97.60
2019-04-05T01:01:06.198Z,97.50
2019-04-05T01:02:06.192Z,97.29
2019-04-05T01:03:06.188Z,97.60
2019-04-05T01:04:06.169Z,97.81
2019-04-05T01:05:06.165Z,97.60
2019-04-05T01:06:06.143Z,97.60
2019-04-05T01:07:06.134Z,97.29
2019-04-05T01:08:06.121Z,97.19
2019-04-05T01:09:06.142Z,97.19
2019-04-05T01:10:06.108Z,97.19
2019-04-05T01:11:06.091Z,96.77
2019-04-05T01:12:06.078Z,97.60
2019-04-05T01:13:06.069Z,97.29
2019-04-05T01:14:06.056Z,97.75
2019-04-05T01:15:06.056Z,97.50
2019-04-05T01:16:06.037Z,97.29
2019-04-05T01:17:06.024Z,97.50
2019-04-05T01:18:06.018Z,97.50
2019-04-05T01:19:06.002Z,97.71
2019-04-05T01:20:05.990Z,97.60
2019-04-05T01:21:05.999Z,97.91
2019-04-05T01:22:05.969Z,97.60
2019-04-05T01:23:05.961Z,97.71
2019-04-05T01:24:05.950Z,97.60
2019-04-05T01:25:05.936Z,97.60
2019-04-05T01:26:05.928Z,97.71
2019-04-05T01:27:05.924Z,97.71
2019-04-05T01:28:05.905Z,98.01
2019-04-05T01:29:05.892Z,97.60
2019-04-05T01:30:05.882Z,97.71
2019-04-05T01:31:05.871Z,97.71
2019-04-05T01:32:05.860Z,97.60
2019-04-05T01:33:05.862Z,97.39
2019-04-05T01:34:05.886Z,97.54
2019-04-05T01:35:05.827Z,97.81
2019-04-05T01:36:05.817Z,97.81
2019-04-05T01:37:05.808Z,97.91
2019-04-05T01:38:05.794Z,97.71
2019-04-05T01:39:05.795Z,97.71
2019-04-05T01:40:05.773Z,97.81
2019-04-05T01:41:05.762Z,97.71
2019-04-05T01:42:05.751Z,97.71
2019-04-05T01:43:05.740Z,97.50
2019-04-05T01:44:05.728Z,97.19
2019-04-05T01:45:05.731Z,97.50
2019-04-05T01:46:05.708Z,97.29
2019-04-05T01:47:05.701Z,97.29
2019-04-05T01:48:05.685Z,97.19
2019-04-05T01:49:05.674Z,97.29
2019-04-05T01:50:05.662Z,97.29
2019-04-05T01:51:05.672Z,97.81
2019-04-05T01:52:05.647Z,97.50
2019-04-05T01:53:05.630Z,97.50
2019-04-05T01:54:05.618Z,97.60
2019-04-05T01:55:05.638Z,97.39
2019-04-05T01:56:05.599Z,97.50
2019-04-05T01:57:05.596Z,97.29
2019-04-05T01:58:05.580Z,97.50
2019-04-05T01:59:05.564Z,97.19
2019-04-05T02:00:05.554Z,97.39
2019-04-05T02:01:05.543Z,97.19
2019-04-05T02:02:05.532Z,97.50
2019-04-05T02:03:05.531Z,97.81
2019-04-05T02:04:05.509Z,97.60
2019-04-05T02:05:05.507Z,97.96
2019-04-05T02:06:05.487Z,97.54
2019-04-05T02:07:05.476Z,97.81
2019-04-05T02:08:05.465Z,98.11
2019-04-05T02:09:05.472Z,98.01
2019-04-05T02:10:05.443Z,98.11
2019-04-05T02:11:05.433Z,98.11
2019-04-05T02:12:05.421Z,97.91
2019-04-05T02:13:05.414Z,97.64
2019-04-05T02:14:05.399Z,97.85
2019-04-05T02:15:05.407Z,97.54
2019-04-05T02:16:06.854Z,98.27
2019-04-05T02:17:05.367Z,98.37
2019-04-05T02:18:05.357Z,98.47
2019-04-05T02:19:05.346Z,98.37
2019-04-05T02:20:05.339Z,97.96
2019-04-05T02:21:05.334Z,98.16
2019-04-05T02:22:05.313Z,98.57
2019-04-05T02:23:05.305Z,98.68
2019-04-05T02:24:05.296Z,98.57
2019-04-05T02:25:05.282Z,98.68
2019-04-05T02:26:05.272Z,98.27
2019-04-05T02:27:05.270Z,98.47
2019-04-05T02:28:05.250Z,98.37
2019-04-05T02:29:05.236Z,98.37
2019-04-05T02:30:05.236Z,98.47
2019-04-05T02:31:05.215Z,98.06
2019-04-05T02:32:05.205Z,98.47
2019-04-05T02:33:05.203Z,98.47
2019-04-05T02:34:05.194Z,98.68
2019-04-05T02:35:05.174Z,98.57
2019-04-05T02:36:05.163Z,98.06
2019-04-05T02:37:05.151Z,97.85
2019-04-05T02:38:05.139Z,98.47
2019-04-05T02:39:05.143Z,98.37
2019-04-05T02:40:05.119Z,98.47
2019-04-05T02:41:05.107Z,98.57
2019-04-05T02:42:05.110Z,98.47
2019-04-05T02:43:05.090Z,98.68
2019-04-05T02:44:05.090Z,98.78
2019-04-05T02:45:05.096Z,98.57
2019-04-05T02:46:05.160Z,98.37
2019-04-05T02:47:05.048Z,98.68
2019-04-05T02:48:05.037Z,98.68
2019-04-05T02:49:05.028Z,98.37
2019-04-05T02:50:05.012Z,98.47
2019-04-05T02:51:05.021Z,98.27
2019-04-05T02:52:04.982Z,98.27
2019-04-05T02:53:04.984Z,98.57
2019-04-05T02:54:04.969Z,98.06
2019-04-05T02:55:04.954Z,98.27
2019-04-05T02:56:04.939Z,98.57
2019-04-05T02:57:04.959Z,98.78
2019-04-05T02:58:04.974Z,98.99
2019-04-05T02:59:04.907Z,98.47
2019-04-05T03:00:04.902Z,99.09
2019-04-05T03:01:04.886Z,99.40
2019-04-05T03:02:04.874Z,99.51
2019-04-05T03:03:04.876Z,99.25
2019-04-05T03:04:04.864Z,99.19
2019-04-05T03:05:04.843Z,98.94
2019-04-05T03:06:04.834Z,98.78
2019-04-05T03:07:04.826Z,98.63
2019-04-05T03:08:04.827Z,98.57
2019-04-05T03:09:04.811Z,98.37
2019-04-05T03:10:04.795Z,98.53
2019-04-05T03:11:04.917Z,98.43
2019-04-05T03:12:04.772Z,98.47
2019-04-05T03:13:04.767Z,98.06
2019-04-05T03:14:04.755Z,98.11
2019-04-05T03:15:04.749Z,98.06
2019-04-05T03:16:04.728Z,98.01
2019-04-05T03:17:04.721Z,98.16
2019-04-05T03:18:04.704Z,98.11
2019-04-05T03:19:04.696Z,98.57
2019-04-05T03:20:04.686Z,98.63
2019-04-05T03:21:04.685Z,98.01
2019-04-05T03:22:04.666Z,98.01
2019-04-05T03:23:04.654Z,98.43
2019-04-05T03:24:04.639Z,98.01
2019-04-05T03:25:04.630Z,97.96
2019-04-05T03:26:04.624Z,97.75
2019-04-05T03:27:04.617Z,97.85
2019-04-05T03:28:04.594Z,98.37
2019-04-05T03:29:04.607Z,97.96
2019-04-05T03:30:04.611Z,98.27
2019-04-05T03:31:04.581Z,97.96
2019-04-05T03:32:04.597Z,98.06
2019-04-05T03:33:04.614Z,98.06
2019-04-05T03:34:04.531Z,98.68
2019-04-05T03:35:04.537Z,98.57
2019-04-05T03:36:04.509Z,98.57
2019-04-05T03:37:04.499Z,98.37
2019-04-05T03:38:04.486Z,98.68
2019-04-05T03:39:04.532Z,98.57
2019-04-05T03:40:04.465Z,98.57
2019-04-05T03:41:04.559Z,98.78
2019-04-05T03:42:04.443Z,98.27
2019-04-05T03:43:04.434Z,98.06
2019-04-05T03:44:04.421Z,98.47
2019-04-05T03:45:04.422Z,98.57
2019-04-05T03:46:04.423Z,98.57
2019-04-05T03:47:04.394Z,98.41
2019-04-05T03:48:04.380Z,98.41
2019-04-05T03:49:04.372Z,98.47
2019-04-05T03:50:04.360Z,98.78
2019-04-05T03:51:04.358Z,99.34
2019-04-05T03:52:04.337Z,98.88
2019-04-05T03:53:04.327Z,98.68
2019-04-05T03:54:04.316Z,98.83
2019-04-05T03:55:04.311Z,98.93
2019-04-05T03:56:04.302Z,98.57
2019-04-05T03:57:04.296Z,98.47
2019-04-05T03:58:04.272Z,99.09
2019-04-05T03:59:04.265Z,98.62
2019-04-05T04:00:04.262Z,98.68
2019-04-05T04:01:04.244Z,98.68
2019-04-05T04:02:04.232Z,98.99
2019-04-05T04:03:04.232Z,99.14
2019-04-05T04:04:04.210Z,99.09
2019-04-05T04:05:04.219Z,98.62
2019-04-05T04:06:04.217Z,98.88
2019-04-05T04:07:04.179Z,99.30
2019-04-05T04:08:04.168Z,99.51
2019-04-05T04:09:04.169Z,99.30
2019-04-05T04:10:04.146Z,99.34
2019-04-05T04:11:04.136Z,98.88
2019-04-05T04:12:04.128Z,98.57
2019-04-05T04:13:04.116Z,98.78
2019-04-05T04:14:04.106Z,98.83
2019-04-05T04:15:04.112Z,99.30
2019-04-05T04:16:04.201Z,99.34
2019-04-05T04:17:11.989Z,99.51
2019-04-05T04:18:05.062Z,99.24
2019-04-05T04:19:04.051Z,99.40
2019-04-05T04:20:04.044Z,99.40
2019-04-05T04:21:04.046Z,99.30
2019-04-05T04:22:04.026Z,98.99
2019-04-05T04:23:04.011Z,98.99
2019-04-05T04:24:04.001Z,98.37
2019-04-05T04:25:03.993Z,97.85
2019-04-05T04:26:03.979Z,98.47
2019-04-05T04:27:03.977Z,98.27
2019-04-05T04:28:03.955Z,97.96
2019-04-05T04:29:03.947Z,97.85
2019-04-05T04:30:03.933Z,98.27
2019-04-05T04:31:03.922Z,97.96
2019-04-05T04:32:03.914Z,97.96
2019-04-05T04:33:03.912Z,98.16
2019-04-05T04:34:03.890Z,97.85
2019-04-05T04:35:03.888Z,98.27
2019-04-05T04:36:03.873Z,97.96
2019-04-05T04:37:03.859Z,97.96
2019-04-05T04:38:03.849Z,98.47
2019-04-05T04:39:03.847Z,98.31
2019-04-05T04:40:03.826Z,98.06
2019-04-05T04:41:03.818Z,98.37
2019-04-05T04:42:03.811Z,98.21
2019-04-05T04:43:03.795Z,98.06
2019-04-05T04:44:03.785Z,98.06
2019-04-05T04:45:11.954Z,98.00
2019-04-05T04:46:04.763Z,98.52
2019-04-05T04:47:03.765Z,98.72
2019-04-05T04:48:03.743Z,98.62
2019-04-05T04:49:03.732Z,98.57
2019-04-05T04:50:03.728Z,98.57
2019-04-05T04:51:03.719Z,98.62
2019-04-05T04:52:03.698Z,98.62
2019-04-05T04:53:03.694Z,98.52
2019-04-05T04:54:03.678Z,98.57
2019-04-05T04:55:03.665Z,98.62
2019-04-05T04:56:03.655Z,98.57
2019-04-05T04:57:03.659Z,98.57
2019-04-05T04:58:03.633Z,98.57
2019-04-05T04:59:03.623Z,97.85
2019-04-05T05:00:03.614Z,98.06
2019-04-05T05:01:03.602Z,98.27
2019-04-05T05:02:03.591Z,98.57
2019-04-05T05:03:03.591Z,98.16
2019-04-05T05:04:03.573Z,98.06
2019-04-05T05:05:03.563Z,98.16
2019-04-05T05:06:03.549Z,97.75
2019-04-05T05:07:03.537Z,98.00
2019-04-05T05:08:03.538Z,97.75
2019-04-05T05:09:03.530Z,97.64
2019-04-05T05:10:03.657Z,97.54
2019-04-05T05:11:13.851Z,97.75
2019-04-05T05:12:04.484Z,97.75
2019-04-05T05:13:03.473Z,97.64
2019-04-05T05:14:03.463Z,97.64
2019-04-05T05:15:03.461Z,97.96
2019-04-05T05:16:03.442Z,97.75
2019-04-05T05:17:03.430Z,97.44
2019-04-05T05:18:03.422Z,98.37
2019-04-05T05:19:03.407Z,98.06
2019-04-05T05:20:03.396Z,98.27
2019-04-05T05:21:03.405Z,98.47
2019-04-05T05:22:03.375Z,98.57
2019-04-05T05:23:03.422Z,98.57
2019-04-05T05:24:03.356Z,98.57
2019-04-05T05:25:03.343Z,98.37
2019-04-05T05:26:03.332Z,98.16
2019-04-05T05:27:03.331Z,97.85
2019-04-05T05:28:03.319Z,97.33
2019-04-05T05:29:03.299Z,97.33
2019-04-05T05:30:03.289Z,97.54
2019-04-05T05:31:03.277Z,97.13
2019-04-05T05:32:03.266Z,97.33
2019-04-05T05:33:03.276Z,97.13
2019-04-05T05:34:03.244Z,97.54
2019-04-05T05:35:03.241Z,97.33
2019-04-05T05:36:03.223Z,97.33
2019-04-05T05:37:03.212Z,97.44
2019-04-05T05:38:03.200Z,97.54
2019-04-05T05:39:03.202Z,98.06
2019-04-05T05:40:03.179Z,97.96
2019-04-05T05:41:03.244Z,97.85
2019-04-05T05:42:03.162Z,97.44
2019-04-05T05:43:03.149Z,97.44
2019-04-05T05:44:03.136Z,97.33
2019-04-05T05:45:03.134Z,97.64
2019-04-05T05:46:03.115Z,97.64
2019-04-05T05:47:03.102Z,98.06
2019-04-05T05:48:03.092Z,97.85
2019-04-05T05:49:03.085Z,98.06
2019-04-05T05:50:03.072Z,97.96
2019-04-05T05:51:03.068Z,98.06
2019-04-05T05:52:03.047Z,98.27
2019-04-05T05:53:03.036Z,98.16
2019-04-05T05:54:03.027Z,97.96
2019-04-05T05:55:03.015Z,98.16
2019-04-05T05:56:03.004Z,98.32
2019-04-05T05:57:03.003Z,97.91
2019-04-05T05:58:02.987Z,98.22
2019-04-05T05:59:02.972Z,98.16
2019-04-05T06:00:02.961Z,97.91
2019-04-05T06:01:02.953Z,97.91
2019-04-05T06:02:02.950Z,97.60
2019-04-05T06:03:06.006Z,97.60
2019-04-05T06:04:02.916Z,97.75
2019-04-05T06:05:02.906Z,97.81
2019-04-05T06:06:04.682Z,97.81
2019-04-05T06:07:02.887Z,98.01
2019-04-05T06:08:02.874Z,97.91
2019-04-05T06:09:02.880Z,98.32
2019-04-05T06:10:02.907Z,98.01
2019-04-05T06:11:02.841Z,97.50
2019-04-05T06:12:02.829Z,97.50
2019-04-05T06:13:06.823Z,97.71
2019-04-05T06:14:02.809Z,97.71
2019-04-05T06:15:02.810Z,97.60
2019-04-05T06:16:02.787Z,97.50
2019-04-05T06:17:02.774Z,96.67
2019-04-05T06:19:03.753Z,97.29
2019-04-05T06:20:02.756Z,97.60
2019-04-05T06:22:03.716Z,97.71
2019-04-05T06:23:02.709Z,97.91
2019-04-05T06:24:05.282Z,97.81
2019-04-05T06:25:02.691Z,97.86
2019-04-05T06:26:02.676Z,97.66
2019-04-05T06:27:02.683Z,97.66
2019-04-05T06:28:02.654Z,97.76
2019-04-05T06:29:02.643Z,97.76
2019-04-05T06:30:02.634Z,97.55
2019-04-05T06:31:02.621Z,97.14
2019-04-05T06:32:02.615Z,97.55
2019-04-05T06:33:02.620Z,97.34
2019-04-05T06:34:02.589Z,97.14
2019-04-05T06:35:02.578Z,97.25
2019-04-05T06:35:39.524Z,97.71
2019-04-05T06:35:39.524Z,97.08
2019-04-05T06:36:02.568Z,97.04
2019-04-05T06:37:02.557Z,97.14
2019-04-05T06:38:02.545Z,97.14
2019-04-05T06:39:02.548Z,96.21
2019-04-05T06:40:02.523Z,96.05
2019-04-05T06:41:02.514Z,96.94
2019-04-05T06:42:02.500Z,97.45
2019-04-05T06:43:02.518Z,97.14
2019-04-05T06:44:02.483Z,97.14
2019-04-05T06:45:02.481Z,97.66
2019-04-05T06:46:02.548Z,96.42
2019-04-05T06:47:02.454Z,95.59
2019-04-05T06:48:02.435Z,96.31
2019-04-05T06:49:02.426Z,97.25
2019-04-05T06:50:02.424Z,97.04
2019-04-05T06:51:02.414Z,97.04
2019-04-05T06:52:02.391Z,97.34
2019-04-05T06:53:02.380Z,97.14
2019-04-05T06:54:03.474Z,97.55
2019-04-05T06:55:02.361Z,97.55
2019-04-05T06:56:02.349Z,97.66
2019-04-05T06:57:02.356Z,97.92
2019-04-05T06:58:02.326Z,97.72
2019-04-05T06:59:02.315Z,97.66
2019-04-05T07:00:02.304Z,97.72
2019-04-05T07:01:02.293Z,97.09
2019-04-05T07:02:02.283Z,96.89
2019-04-05T07:03:02.284Z,96.48
2019-04-05T07:04:02.269Z,96.44
2019-04-05T07:05:02.259Z,96.17
2019-04-05T07:06:02.243Z,95.76
2019-04-05T07:07:02.243Z,95.61
2019-04-05T07:08:02.218Z,95.34
2019-04-05T07:09:02.220Z,94.89
2019-04-05T07:10:02.199Z,94.82
2019-04-05T07:11:02.187Z,94.78
2019-04-05T07:12:02.176Z,94.93
2019-04-05T07:13:02.305Z,94.68
2019-04-05T07:14:02.161Z,95.50
2019-04-05T07:15:02.158Z,95.45
2019-04-05T07:16:02.133Z,94.82
2019-04-05T07:17:02.122Z,94.78
2019-04-05T07:18:02.111Z,94.57
2019-04-05T07:19:02.102Z,94.47
2019-04-05T07:20:02.093Z,94.53
2019-04-05T07:21:02.089Z,95.15
2019-04-05T07:22:02.069Z,94.84
2019-04-05T07:23:02.057Z,93.65
2019-04-05T07:24:02.047Z,93.24
2019-04-05T07:25:02.035Z,93.75
2019-04-05T07:26:02.032Z,93.54
2019-04-05T07:27:02.024Z,92.93
2019-04-05T07:28:02.003Z,91.63
2019-04-05T07:29:01.992Z,93.73
2019-04-05T07:30:01.985Z,93.07
2019-04-05T07:31:01.970Z,94.15
2019-04-05T07:32:01.964Z,94.42
2019-04-05T07:33:01.975Z,93.18
2019-04-05T07:34:01.945Z,92.91
2019-04-05T07:35:01.928Z,93.22
2019-04-05T07:36:03.446Z,93.73
2019-04-05T07:37:01.909Z,93.63
2019-04-05T07:38:01.896Z,93.69
2019-04-05T07:39:01.903Z,93.38
2019-04-05T07:40:01.874Z,92.97
2019-04-05T07:41:01.868Z,93.18
2019-04-05T07:42:01.855Z,93.69
2019-04-05T07:43:01.843Z,92.76
2019-04-05T07:44:01.835Z,92.55
2019-04-05T07:45:01.833Z,93.18
2019-04-05T07:46:01.812Z,94.06
2019-04-05T07:47:01.801Z,93.07
2019-04-05T07:48:01.864Z,92.04
2019-04-05T07:49:01.779Z,92.25
2019-04-05T07:50:01.769Z,91.83
2019-04-05T07:51:01.776Z,92.14
2019-04-05T07:52:01.748Z,91.79
2019-04-05T07:53:01.736Z,92.93
2019-04-05T07:54:01.726Z,91.69
2019-04-05T07:55:01.725Z,91.94
2019-04-05T07:56:01.705Z,92.14
2019-04-05T07:57:01.715Z,92.46
2019-04-05T07:58:01.683Z,92.00
2019-04-05T07:59:01.675Z,92.21
2019-04-05T08:00:01.661Z,93.75
2019-04-05T08:01:01.652Z,92.31
2019-04-05T08:02:01.643Z,92.16
2019-04-05T08:03:01.639Z,93.81
2019-04-05T08:04:01.619Z,91.54
2019-04-05T08:05:01.609Z,91.44
2019-04-05T08:06:01.598Z,90.41
2019-04-05T08:07:01.594Z,92.22
2019-04-05T08:08:01.575Z,92.22
2019-04-05T08:09:02.329Z,90.16
2019-04-05T08:10:03.187Z,90.43
2019-04-05T08:11:01.543Z,90.43
2019-04-05T08:12:01.535Z,89.67
2019-04-05T08:13:01.521Z,89.46
2019-04-05T08:14:01.510Z,90.14
2019-04-05T08:15:01.521Z,88.29
2019-04-05T08:16:01.543Z,86.58
2019-04-05T08:17:01.477Z,89.09
2019-04-05T08:18:01.465Z,88.02
2019-04-05T08:19:01.457Z,88.84
2019-04-05T08:20:01.446Z,89.52
2019-04-05T08:21:01.446Z,87.87
2019-04-05T08:22:01.422Z,87.12
2019-04-05T08:23:01.414Z,88.14
2019-04-05T08:24:01.401Z,88.51
2019-04-05T08:25:01.390Z,87.07
2019-04-05T08:26:01.378Z,84.71
2019-04-05T08:27:01.387Z,84.71
2019-04-05T08:28:01.357Z,86.56
2019-04-05T08:29:01.345Z,85.68
2019-04-05T08:30:01.335Z,84.58
2019-04-05T08:31:01.324Z,86.54
2019-04-05T08:32:13.631Z,87.15
2019-04-05T08:33:02.313Z,87.46
2019-04-05T08:34:01.291Z,90.45
2019-04-05T08:35:01.282Z,91.27
2019-04-05T08:36:01.268Z,90.20
2019-04-05T08:37:01.260Z,89.28
2019-04-05T08:38:01.246Z,88.24
2019-04-05T08:39:01.249Z,87.42
2019-04-05T08:40:01.232Z,86.19
2019-04-05T08:41:01.215Z,86.40
2019-04-05T08:42:01.203Z,85.61
2019-04-05T08:43:01.192Z,84.52
2019-04-05T08:44:01.188Z,85.07
2019-04-05T08:45:01.183Z,85.28
2019-04-05T08:46:01.160Z,85.42
2019-04-05T08:47:01.149Z,87.27
2019-04-05T08:48:01.138Z,88.31
2019-04-05T08:49:10.466Z,88.65
2019-04-05T08:50:02.136Z,88.51
2019-04-05T08:51:01.104Z,89.23
2019-04-05T08:52:01.099Z,87.90
2019-04-05T08:53:01.083Z,89.54
2019-04-05T08:54:01.077Z,88.72
2019-04-05T08:55:01.061Z,87.90
2019-04-05T08:56:01.062Z,87.07
2019-04-05T08:57:01.040Z,87.90
2019-04-05T08:58:01.042Z,87.59
2019-04-05T08:59:01.020Z,86.87
2019-04-05T09:00:01.049Z,86.55
2019-04-05T09:01:00.999Z,86.45
2019-04-05T09:02:01.000Z,88.06
2019-04-05T09:03:00.977Z,88.57
2019-04-05T09:04:00.966Z,86.99
2019-04-05T09:05:00.955Z,85.38
2019-04-05T09:06:00.943Z,86.66
2019-04-05T09:07:00.933Z,86.76
2019-04-05T09:08:00.936Z,87.99
2019-04-05T09:09:00.915Z,86.76
2019-04-05T09:10:00.901Z,87.07
2019-04-05T09:11:00.892Z,86.35
2019-04-05T09:12:00.879Z,85.52
2019-04-05T09:13:00.869Z,86.45
2019-04-05T09:14:00.872Z,87.99
2019-04-05T09:15:00.849Z,86.45
2019-04-05T09:16:00.836Z,88.26
2019-04-05T09:17:00.825Z,87.54
2019-04-05T09:18:00.814Z,86.41
2019-04-05T09:19:00.802Z,86.61
2019-04-05T09:20:00.899Z,87.03
2019-04-05T09:21:00.780Z,87.75
2019-04-05T09:22:00.769Z,87.75
2019-04-05T09:23:00.760Z,86.52
2019-04-05T09:24:00.747Z,86.76
2019-04-05T09:25:00.737Z,86.76
2019-04-05T09:26:00.740Z,86.45
2019-04-05T09:27:00.715Z,85.52
2019-04-05T09:28:00.703Z,85.73
2019-04-05T09:29:00.693Z,86.35
2019-04-05T09:30:00.681Z,85.63
2019-04-05T09:31:00.671Z,86.55
2019-04-05T09:32:00.673Z,87.34
2019-04-05T09:33:00.648Z,85.42
2019-04-05T09:34:00.638Z,86.55
2019-04-05T09:35:00.627Z,86.55
2019-04-05T09:36:00.615Z,86.61
2019-04-05T09:37:00.604Z,85.49
2019-04-05T09:38:00.604Z,85.69
2019-04-05T09:39:00.583Z,84.87
2019-04-05T09:40:00.572Z,85.63
2019-04-05T09:41:00.562Z,85.22
2019-04-05T09:42:00.550Z,84.91
2019-04-05T09:43:00.540Z,85.42
2019-04-05T09:44:00.562Z,86.55
2019-04-05T09:45:00.518Z,87.44
2019-04-05T09:46:00.506Z,87.85
2019-04-05T09:47:00.506Z,88.26
2019-04-05T09:48:00.489Z,88.06
2019-04-05T09:49:00.474Z,86.31
2019-04-05T09:50:00.474Z,84.66
2019-04-05T09:51:00.538Z,84.87
2019-04-05T09:52:00.441Z,86.21
2019-04-05T09:53:00.429Z,86.61
2019-04-05T09:54:00.422Z,87.85
2019-04-05T09:55:00.409Z,88.57
2019-04-05T09:56:00.407Z,87.81
2019-04-05T09:57:00.387Z,87.81
2019-04-05T09:58:00.375Z,88.18
2019-04-05T09:59:00.364Z,86.33
2019-04-05T10:00:00.354Z,85.55
2019-04-05T10:01:00.342Z,85.61
2019-04-05T10:02:00.348Z,84.00
2019-04-05T10:03:00.343Z,84.52
2019-04-05T10:04:00.319Z,84.52
2019-04-05T10:05:00.312Z,84.72
2019-04-05T10:06:00.298Z,84.14
2019-04-05T10:07:00.285Z,84.56
2019-04-05T10:08:00.289Z,85.75
2019-04-05T10:09:00.257Z,84.56
2019-04-05T10:10:00.251Z,84.97
2019-04-05T10:11:00.237Z,86.47
2019-04-05T10:12:00.225Z,86.99
2019-04-05T10:13:00.220Z,85.65
2019-04-05T10:14:00.213Z,86.37
2019-04-05T10:15:00.192Z,84.62
2019-04-05T10:16:00.184Z,85.24
2019-04-05T10:17:00.170Z,85.44
2019-04-05T10:18:00.160Z,84.83
2019-04-05T10:19:00.153Z,85.14
2019-04-05T10:20:00.153Z,85.75
2019-04-05T10:21:00.127Z,83.90
2019-04-05T10:22:00.115Z,85.24
2019-04-05T10:23:00.105Z,87.30
2019-04-05T10:24:00.095Z,87.30
2019-04-05T10:25:00.084Z,86.54
2019-04-05T10:26:00.084Z,85.41
2019-04-05T10:27:00.063Z,85.41
2019-04-05T10:28:00.061Z,85.14
2019-04-05T10:29:00.047Z,84.83
2019-04-05T10:30:00.035Z,85.14
2019-04-05T10:31:00.021Z,86.37
2019-04-05T10:32:00.031Z,85.44
2019-04-05T10:32:59.999Z,84.83
2019-04-05T10:33:59.991Z,86.47
2019-04-05T10:34:59.978Z,86.27
2019-04-05T10:35:59.967Z,85.34
2019-04-05T10:36:59.957Z,85.75
2019-04-05T10:37:59.957Z,86.27
2019-04-05T10:38:59.935Z,85.65
2019-04-05T10:39:59.924Z,86.43
2019-04-05T10:40:59.913Z,84.99
2019-04-05T10:42:03.681Z,85.71
2019-04-05T10:42:59.894Z,86.43
2019-04-05T10:43:59.892Z,86.33
2019-04-05T10:44:59.874Z,86.23
2019-04-05T10:45:59.868Z,86.29
2019-04-05T10:46:59.850Z,84.13
2019-04-05T10:47:59.840Z,84.07
2019-04-05T10:48:59.829Z,84.48
2019-04-05T10:50:03.336Z,84.07
2019-04-05T10:50:59.809Z,84.21
2019-04-05T10:51:59.797Z,85.03
2019-04-05T10:52:59.786Z,85.34
2019-04-05T10:53:59.777Z,85.44
2019-04-05T10:54:59.775Z,84.52
2019-04-05T10:55:59.764Z,84.52
2019-04-05T10:56:59.744Z,85.24
2019-04-05T10:57:59.733Z,84.52
2019-04-05T10:58:59.724Z,85.49
2019-04-05T10:59:59.711Z,86.68
2019-04-05T11:00:59.703Z,88.12
2019-04-05T11:01:59.704Z,88.33
2019-04-05T11:02:59.680Z,87.46
2019-04-05T11:03:59.668Z,87.26
2019-04-05T11:04:59.659Z,86.33
2019-04-05T11:05:59.647Z,86.43
2019-04-05T11:06:59.636Z,84.48
2019-04-05T11:07:59.642Z,83.49
2019-04-05T11:08:59.615Z,84.42
2019-04-05T11:09:59.604Z,85.24
2019-04-05T11:10:59.604Z,87.36
2019-04-05T11:11:59.583Z,87.05
2019-04-05T11:12:59.575Z,86.95
2019-04-05T11:13:59.574Z,86.74
2019-04-05T11:14:59.551Z,86.23
2019-04-05T11:15:59.540Z,84.99
2019-04-05T11:16:59.532Z,85.41
2019-04-05T11:17:59.520Z,86.33
2019-04-05T11:19:01.878Z,85.36
2019-04-05T11:19:59.512Z,84.48
2019-04-05T11:20:59.486Z,84.44
2019-04-05T11:21:59.476Z,83.72
2019-04-05T11:22:59.463Z,84.89
2019-04-05T11:23:59.453Z,85.10
2019-04-05T11:24:59.443Z,84.69
2019-04-05T11:25:59.455Z,85.61
2019-04-05T11:26:59.423Z,84.17
2019-04-05T11:27:59.416Z,84.38
2019-04-05T11:28:59.424Z,84.58
2019-04-05T11:29:59.395Z,84.99
2019-04-05T11:30:59.379Z,84.79
2019-04-05T11:31:59.379Z,84.58
2019-04-05T11:32:59.362Z,84.58
2019-04-05T11:33:59.347Z,84.44
2019-04-05T11:34:59.336Z,84.85
2019-04-05T11:35:59.329Z,84.79
2019-04-05T11:36:59.314Z,86.50
2019-04-05T11:37:59.314Z,86.15
2019-04-05T11:38:59.293Z,84.40
2019-04-05T11:39:59.283Z,85.02
2019-04-05T11:40:59.272Z,84.40
2019-04-05T11:41:59.263Z,83.99
2019-04-05T11:42:59.250Z,81.73
2019-04-05T11:44:00.720Z,83.00
2019-04-05T11:44:59.229Z,82.79
2019-04-05T11:45:59.219Z,82.53
2019-04-05T11:46:59.212Z,82.93
2019-04-05T11:47:59.197Z,82.83
2019-04-05T11:48:59.191Z,83.76
2019-04-05T11:49:59.190Z,85.26
2019-04-05T11:50:59.165Z,83.25
2019-04-05T11:51:59.154Z,84.17
2019-04-05T11:52:59.146Z,84.38
2019-04-05T11:53:59.133Z,84.17
2019-04-05T11:54:59.122Z,84.17
2019-04-05T11:55:59.123Z,84.79
2019-04-05T11:56:59.100Z,84.79
2019-04-05T11:57:59.090Z,83.55
2019-04-05T11:58:59.079Z,82.83
2019-04-05T11:59:59.069Z,83.86
2019-04-05T12:00:59.058Z,84.69
2019-04-05T12:01:59.079Z,84.48
2019-04-05T12:02:59.038Z,84.79
2019-04-05T12:03:59.026Z,84.99
2019-04-05T12:04:59.016Z,84.99
2019-04-05T12:05:59.005Z,85.82
2019-04-05T12:06:59.007Z,86.54
2019-04-05T12:08:01.797Z,84.89
2019-04-05T12:08:59.301Z,85.30
2019-04-05T12:09:58.962Z,84.99
2019-04-05T12:10:58.952Z,85.10
2019-04-05T12:11:58.941Z,85.41
2019-04-05T12:12:58.933Z,84.69
2019-04-05T12:13:58.933Z,85.75
2019-04-05T12:14:58.924Z,86.74
2019-04-05T12:15:58.974Z,87.46
2019-04-05T12:16:58.888Z,86.23
2019-04-05T12:17:58.877Z,85.51
2019-04-05T12:18:59.072Z,85.41
2019-04-05T12:20:00.615Z,85.10
2019-04-05T12:21:00.562Z,85.82
2019-04-05T12:21:58.834Z,85.51
2019-04-05T12:22:58.823Z,85.10
2019-04-05T12:24:00.528Z,85.41
2019-04-05T12:25:02.515Z,85.30
2019-04-05T12:25:58.804Z,85.82
2019-04-05T12:26:58.780Z,86.54
2019-04-05T12:28:06.285Z,86.43
2019-04-05T12:28:59.760Z,85.06
2019-04-05T12:29:58.748Z,84.79
2019-04-05T12:30:58.736Z,84.34
2019-04-05T12:31:58.737Z,86.40
2019-04-05T12:32:58.715Z,85.51
2019-04-05T12:33:58.704Z,84.54
2019-04-05T12:34:58.695Z,84.99
2019-04-05T12:35:58.685Z,84.99
2019-04-05T12:36:58.672Z,84.99
2019-04-05T12:37:58.675Z,85.10
2019-04-05T12:38:58.650Z,85.20
2019-04-05T12:39:58.641Z,84.99
2019-04-05T12:40:58.631Z,85.51
2019-04-05T12:41:58.617Z,85.24
2019-04-05T12:42:58.606Z,86.23
2019-04-05T12:43:58.608Z,85.30
2019-04-05T12:44:58.594Z,85.61
2019-04-05T12:45:58.575Z,84.89
2019-04-05T12:46:58.564Z,84.89
2019-04-05T12:47:59.266Z,86.47
2019-04-05T12:48:58.543Z,86.23
2019-04-05T12:49:58.539Z,86.43
2019-04-05T12:51:01.356Z,86.37
2019-04-05T12:51:58.510Z,86.37